Řízení letového provozu České republiky
Letiste: LKLN Aktualizace: 29.04.2017 05:06:12  UTC
 SPECI LKLN 29.04. 05:01 ...
SPECI LKLN 290501Z AUTO 20003KT 0500 FG FEW011 SCT091 01/00 Q1017=
 METAR LKLN 29.04. 03:00 ...
METAR LKLN 290300Z AUTO 00000KT 1100 BR BKN060 01/01 Q1016=